Time;durP1;ratioP1;P1;durP2;ratioP2;P2;SDS_P1;SDS_P2;PMS_P1;PMS_P2;Temp;Humidity;BMP_temperature;BMP_pressure;BME280_temperature;BME280_humidity;BME280_pressure;Samples;Min_cycle;Max_cycle;Signal;HPM_P1;HPM_P2
2023/06/17 00:00:59;;;;;;;8.77;7.95;;;;;;;;;;5094535;28;20447;-90
2023/06/17 00:03:27;;;;;;;9.25;8.35;;;;;;;;;;5095061;28;20059;-90
2023/06/17 00:05:54;;;;;;;9.68;8.88;;;;;;;;;;5096331;28;20055;-90
2023/06/17 00:08:21;;;;;;;10.02;8.23;;;;;;;;;;5094700;28;20051;-91
2023/06/17 00:10:51;;;;;;;9.95;8.95;;;;;;;;;;5094600;28;20488;-90
2023/06/17 00:13:22;;;;;;;13.70;9.00;;;;;;;;;;5094420;28;20078;-90
2023/06/17 00:15:56;;;;;;;11.00;9.85;;;;;;;;;;5095776;28;20103;-90
2023/06/17 00:18:24;;;;;;;11.10;9.52;;;;;;;;;;5095032;28;20048;-91
2023/06/17 00:20:52;;;;;;;13.05;10.35;;;;;;;;;;5109134;28;20077;-90
2023/06/17 00:23:20;;;;;;;11.57;9.43;;;;;;;;;;5098394;28;20492;-90
2023/06/17 00:25:48;;;;;;;14.15;10.95;;;;;;;;;;5094591;28;20508;-91
2023/06/17 00:28:16;;;;;;;12.05;10.90;;;;;;;;;;5095242;28;20082;-90
2023/06/17 00:30:46;;;;;;;12.95;10.82;;;;;;;;;;5094579;28;20102;-89
2023/06/17 00:33:14;;;;;;;16.10;10.50;;;;;;;;;;5095393;28;20056;-92
2023/06/17 00:35:42;;;;;;;12.57;10.40;;;;;;;;;;5094452;28;20055;-95
2023/06/17 00:38:09;;;;;;;13.38;11.90;;;;;;;;;;5096167;28;20090;-89
2023/06/17 00:40:37;;;;;;;13.27;11.65;;;;;;;;;;5093972;28;20055;-89
2023/06/17 00:43:04;;;;;;;15.93;11.63;;;;;;;;;;5094025;28;20094;-89
2023/06/17 00:45:38;;;;;;;11.73;10.52;;;;;;;;;;5095040;28;20101;-90
2023/06/17 00:48:07;;;;;;;11.85;10.68;;;;;;;;;;5094581;28;20070;-90
2023/06/17 00:50:36;;;;;;;12.73;11.43;;;;;;;;;;5094027;28;20627;-90
2023/06/17 00:53:03;;;;;;;15.70;10.95;;;;;;;;;;5094257;28;20078;-91
2023/06/17 00:55:32;;;;;;;11.27;10.13;;;;;;;;;;5093811;28;20080;-91
2023/06/17 00:58:00;;;;;;;10.63;9.63;;;;;;;;;;5093914;28;20079;-90
2023/06/17 01:00:28;;;;;;;12.45;11.23;;;;;;;;;;5093908;28;20148;-91
2023/06/17 01:02:56;;;;;;;10.55;9.18;;;;;;;;;;5093960;28;20080;-90
2023/06/17 01:05:27;;;;;;;12.13;9.25;;;;;;;;;;5093857;28;20071;-89
2023/06/17 01:08:10;;;;;;;11.75;10.48;;;;;;;;;;5093804;28;20557;-91
2023/06/17 01:10:44;;;;;;;10.20;9.20;;;;;;;;;;5093763;28;20048;-90
2023/06/17 01:13:12;;;;;;;10.43;9.43;;;;;;;;;;5094707;28;20052;-89
2023/06/17 01:15:40;;;;;;;9.73;8.90;;;;;;;;;;5093539;28;20087;-89
2023/06/17 01:18:08;;;;;;;9.52;8.73;;;;;;;;;;5093426;28;20062;-90
2023/06/17 01:20:36;;;;;;;9.57;8.77;;;;;;;;;;5093384;28;20058;-90
2023/06/17 01:23:05;;;;;;;10.65;9.55;;;;;;;;;;5093567;28;20109;-90
2023/06/17 01:25:33;;;;;;;11.50;9.43;;;;;;;;;;5093303;28;20044;-91
2023/06/17 01:28:01;;;;;;;10.35;9.02;;;;;;;;;;5093742;28;20097;-91
2023/06/17 01:30:29;;;;;;;11.05;10.00;;;;;;;;;;5093277;28;20059;-92
2023/06/17 01:33:00;;;;;;;12.13;10.90;;;;;;;;;;5093377;28;20090;-90
2023/06/17 01:35:32;;;;;;;11.32;10.13;;;;;;;;;;5095109;28;20048;-90
2023/06/17 01:38:06;;;;;;;10.43;9.48;;;;;;;;;;5110361;28;20127;-89
2023/06/17 01:40:34;;;;;;;13.23;10.27;;;;;;;;;;5093362;28;20131;-90
2023/06/17 01:43:03;;;;;;;11.80;10.57;;;;;;;;;;5093141;28;20052;-90
2023/06/17 01:45:31;;;;;;;10.65;9.57;;;;;;;;;;5093065;28;20062;-90
2023/06/17 01:47:59;;;;;;;11.25;9.60;;;;;;;;;;5093178;28;20131;-87
2023/06/17 01:50:26;;;;;;;9.40;8.55;;;;;;;;;;5093009;28;20080;-89
2023/06/17 01:52:53;;;;;;;9.95;9.15;;;;;;;;;;5092992;28;20066;-89
2023/06/17 01:55:21;;;;;;;10.40;9.38;;;;;;;;;;5092792;28;20083;-88
2023/06/17 01:57:48;;;;;;;11.40;9.32;;;;;;;;;;5093055;28;20044;-89
2023/06/17 02:00:15;;;;;;;10.63;9.65;;;;;;;;;;5093020;28;20083;-87
2023/06/17 02:02:43;;;;;;;15.60;10.73;;;;;;;;;;5093680;28;20048;-89
2023/06/17 02:05:10;;;;;;;11.38;10.38;;;;;;;;;;5092993;28;20048;-90
2023/06/17 02:07:38;;;;;;;9.70;8.90;;;;;;;;;;5092855;28;20047;-89
2023/06/17 02:10:05;;;;;;;11.38;10.18;;;;;;;;;;5093652;28;20101;-89
2023/06/17 02:12:33;;;;;;;11.57;9.50;;;;;;;;;;5092837;28;20048;-89
2023/06/17 02:15:00;;;;;;;9.90;8.75;;;;;;;;;;5092744;28;20052;-90
2023/06/17 02:17:27;;;;;;;10.07;9.00;;;;;;;;;;5093601;28;20412;-89
2023/06/17 02:19:55;;;;;;;10.95;9.85;;;;;;;;;;5093348;28;20127;-90
2023/06/17 02:22:22;;;;;;;11.07;9.98;;;;;;;;;;5093452;28;20052;-89
2023/06/17 02:24:50;;;;;;;12.68;10.68;;;;;;;;;;5092789;28;20040;-89
2023/06/17 02:27:17;;;;;;;10.07;9.18;;;;;;;;;;5092571;28;20480;-89
2023/06/17 02:29:45;;;;;;;11.55;10.35;;;;;;;;;;5092641;28;20044;-88
2023/06/17 02:32:12;;;;;;;11.60;10.05;;;;;;;;;;5092422;28;20059;-87
2023/06/17 02:34:42;;;;;;;10.38;9.38;;;;;;;;;;5092525;28;20080;-89
2023/06/17 02:37:10;;;;;;;10.30;9.35;;;;;;;;;;5096689;28;20109;-88
2023/06/17 02:39:37;;;;;;;15.40;10.48;;;;;;;;;;5097387;28;20089;-89
2023/06/17 02:42:04;;;;;;;11.45;10.25;;;;;;;;;;5097410;28;20389;-89
2023/06/17 02:44:31;;;;;;;10.00;9.00;;;;;;;;;;5096302;28;20048;-89
2023/06/17 02:46:59;;;;;;;10.70;9.60;;;;;;;;;;5096235;28;20080;-88
2023/06/17 02:49:26;;;;;;;11.60;9.45;;;;;;;;;;5096080;28;20128;-88
2023/06/17 02:51:54;;;;;;;10.95;9.57;;;;;;;;;;5099283;28;20070;-88
2023/06/17 02:54:21;;;;;;;10.23;9.32;;;;;;;;;;5110726;28;20048;-89
2023/06/17 02:56:51;;;;;;;13.15;10.80;;;;;;;;;;5097299;28;20480;-89
2023/06/17 02:59:19;;;;;;;10.85;9.55;;;;;;;;;;5097033;28;20060;-89
2023/06/17 03:01:46;;;;;;;11.27;10.02;;;;;;;;;;5095902;28;20496;-89
2023/06/17 03:04:14;;;;;;;12.27;11.00;;;;;;;;;;5096103;28;20051;-89
2023/06/17 03:06:41;;;;;;;13.18;10.52;;;;;;;;;;5096116;28;20049;-89
2023/06/17 03:09:09;;;;;;;11.57;10.38;;;;;;;;;;5096230;28;20047;-88
2023/06/17 03:11:39;;;;;;;10.88;9.88;;;;;;;;;;5095708;28;20080;-89
2023/06/17 03:14:07;;;;;;;11.23;10.13;;;;;;;;;;5096166;28;20040;-89
2023/06/17 03:16:38;;;;;;;11.65;9.88;;;;;;;;;;5095820;28;20048;-88
2023/06/17 03:19:06;;;;;;;14.13;11.07;;;;;;;;;;5096568;28;20101;-88
2023/06/17 03:21:35;;;;;;;10.88;9.88;;;;;;;;;;5095749;28;20437;-89
2023/06/17 03:24:03;;;;;;;10.30;9.40;;;;;;;;;;5095676;28;20044;-89
2023/06/17 03:26:30;;;;;;;10.88;9.77;;;;;;;;;;5095611;28;20101;-89
2023/06/17 03:28:57;;;;;;;12.15;10.82;;;;;;;;;;5095668;28;20112;-90
2023/06/17 03:31:25;;;;;;;11.02;9.98;;;;;;;;;;5095953;28;20056;-89
2023/06/17 03:33:52;;;;;;;11.02;9.85;;;;;;;;;;5095790;28;20048;-88
2023/06/17 03:36:30;;;;;;;10.15;9.15;;;;;;;;;;5095598;28;20090;-88
2023/06/17 03:38:57;;;;;;;9.50;8.45;;;;;;;;;;5096604;28;20048;-89
2023/06/17 03:41:25;;;;;;;10.02;9.13;;;;;;;;;;5095182;28;20048;-89
2023/06/17 03:43:52;;;;;;;10.52;9.52;;;;;;;;;;5095156;28;20060;-89
2023/06/17 03:46:20;;;;;;;10.95;10.00;;;;;;;;;;5093797;28;20098;-88
2023/06/17 03:48:47;;;;;;;11.15;10.05;;;;;;;;;;5094899;28;20105;-88
2023/06/17 03:51:14;;;;;;;10.65;9.60;;;;;;;;;;5096199;28;20044;-88
2023/06/17 03:53:41;;;;;;;11.07;10.07;;;;;;;;;;5096095;28;20109;-88
2023/06/17 03:56:09;;;;;;;11.25;10.05;;;;;;;;;;5094926;28;20051;-88
2023/06/17 03:58:36;;;;;;;10.05;8.90;;;;;;;;;;5094865;28;20097;-87
2023/06/17 04:01:06;;;;;;;10.27;9.32;;;;;;;;;;5094932;28;20055;-86
2023/06/17 04:03:34;;;;;;;9.50;8.60;;;;;;;;;;5095094;28;20048;-88
2023/06/17 04:06:01;;;;;;;9.75;8.80;;;;;;;;;;5095238;28;20098;-89
2023/06/17 04:08:32;;;;;;;12.07;9.68;;;;;;;;;;5104304;28;20059;-86
2023/06/17 04:11:00;;;;;;;9.63;8.65;;;;;;;;;;5102080;28;20048;-85
2023/06/17 04:13:27;;;;;;;9.00;8.20;;;;;;;;;;5094721;28;20055;-88
2023/06/17 04:15:55;;;;;;;10.70;8.95;;;;;;;;;;5094632;28;20047;-87
2023/06/17 04:18:22;;;;;;;9.32;8.35;;;;;;;;;;5095710;28;20048;-88
2023/06/17 04:20:50;;;;;;;10.50;8.85;;;;;;;;;;5094396;28;20097;-88
2023/06/17 04:23:17;;;;;;;11.13;9.98;;;;;;;;;;5094461;28;20070;-88
2023/06/17 04:25:44;;;;;;;11.20;10.10;;;;;;;;;;5094484;28;20093;-88
2023/06/17 04:28:12;;;;;;;9.88;8.88;;;;;;;;;;5094584;28;20412;-88
2023/06/17 04:30:40;;;;;;;11.15;9.30;;;;;;;;;;5094206;28;20097;-88
2023/06/17 04:33:11;;;;;;;10.13;9.32;;;;;;;;;;5094041;28;20048;-88
2023/06/17 04:35:41;;;;;;;10.65;9.55;;;;;;;;;;5094234;28;20496;-88
2023/06/17 04:38:10;;;;;;;9.93;9.05;;;;;;;;;;5095403;28;20483;-88
2023/06/17 04:40:38;;;;;;;9.57;8.77;;;;;;;;;;5094110;28;20052;-88
2023/06/17 04:43:05;;;;;;;10.52;9.63;;;;;;;;;;5094267;28;20508;-88
2023/06/17 04:45:35;;;;;;;10.57;9.52;;;;;;;;;;5094144;28;20040;-88
2023/06/17 04:48:06;;;;;;;11.32;9.13;;;;;;;;;;5093884;28;20044;-88
2023/06/17 04:50:34;;;;;;;10.05;9.05;;;;;;;;;;5093554;28;20048;-88
2023/06/17 04:53:03;;;;;;;9.25;8.45;;;;;;;;;;5093606;28;20569;-88
2023/06/17 04:55:35;;;;;;;9.32;8.43;;;;;;;;;;5093681;28;20055;-88
2023/06/17 04:58:04;;;;;;;8.95;8.05;;;;;;;;;;5093271;28;20055;-88
2023/06/17 05:00:31;;;;;;;7.88;7.28;;;;;;;;;;5092607;28;20056;-88
2023/06/17 05:02:58;;;;;;;9.38;7.97;;;;;;;;;;5094810;28;20059;-87
2023/06/17 05:05:25;;;;;;;9.00;7.80;;;;;;;;;;5093464;28;20098;-87
2023/06/17 05:07:53;;;;;;;8.65;7.72;;;;;;;;;;5094725;28;20480;-87
2023/06/17 05:10:20;;;;;;;7.03;6.50;;;;;;;;;;5093120;28;20131;-87
2023/06/17 05:12:47;;;;;;;7.47;6.07;;;;;;;;;;5094274;28;20044;-87
2023/06/17 05:15:15;;;;;;;6.47;5.97;;;;;;;;;;5093346;28;20055;-86
2023/06/17 05:17:42;;;;;;;8.20;5.10;;;;;;;;;;5094266;28;20048;-84
2023/06/17 05:20:11;;;;;;;5.75;5.25;;;;;;;;;;5094489;28;20459;-84
2023/06/17 05:22:38;;;;;;;5.95;5.45;;;;;;;;;;5094428;28;20056;-84
2023/06/17 05:25:06;;;;;;;7.18;4.68;;;;;;;;;;5105402;28;20141;-83
2023/06/17 05:27:33;;;;;;;4.95;4.65;;;;;;;;;;5095496;28;20109;-84
2023/06/17 05:30:01;;;;;;;8.15;5.00;;;;;;;;;;5092630;28;20048;-83
2023/06/17 05:32:28;;;;;;;5.78;5.22;;;;;;;;;;5092748;28;20412;-83
2023/06/17 05:34:55;;;;;;;4.95;4.55;;;;;;;;;;5092692;28;20082;-83
2023/06/17 05:37:22;;;;;;;5.18;4.78;;;;;;;;;;5092566;28;20055;-84
2023/06/17 05:39:50;;;;;;;4.72;4.43;;;;;;;;;;5093312;28;20079;-82
2023/06/17 05:42:17;;;;;;;5.28;4.80;;;;;;;;;;5093054;28;20394;-83
2023/06/17 05:44:44;;;;;;;8.13;5.40;;;;;;;;;;5092309;28;20051;-83
2023/06/17 05:47:12;;;;;;;6.68;4.80;;;;;;;;;;5092752;28;20086;-83
2023/06/17 05:49:39;;;;;;;5.60;5.10;;;;;;;;;;5092478;28;20105;-82
2023/06/17 05:52:06;;;;;;;5.93;4.22;;;;;;;;;;5092139;28;20437;-82
2023/06/17 05:54:34;;;;;;;4.70;4.20;;;;;;;;;;5108432;28;20094;-82
2023/06/17 05:57:04;;;;;;;4.80;4.10;;;;;;;;;;5112284;28;20552;-82
2023/06/17 05:59:32;;;;;;;4.80;4.40;;;;;;;;;;5112000;28;20096;-82
2023/06/17 06:01:59;;;;;;;6.57;4.22;;;;;;;;;;5111916;28;20098;-82
2023/06/17 06:04:27;;;;;;;4.72;4.38;;;;;;;;;;5112055;28;20055;-82
2023/06/17 06:06:54;;;;;;;4.75;4.35;;;;;;;;;;5113864;28;20039;-82
2023/06/17 06:09:21;;;;;;;4.45;3.88;;;;;;;;;;5113188;28;20048;-82
2023/06/17 06:11:49;;;;;;;4.60;4.30;;;;;;;;;;5111832;28;20091;-82
2023/06/17 06:14:16;;;;;;;4.75;4.25;;;;;;;;;;5113308;28;20071;-83
2023/06/17 06:16:45;;;;;;;4.20;3.80;;;;;;;;;;5113402;28;20047;-83
2023/06/17 06:19:13;;;;;;;4.30;3.97;;;;;;;;;;5112380;28;20079;-82
2023/06/17 06:21:40;;;;;;;8.45;4.10;;;;;;;;;;5111957;28;20480;-82
2023/06/17 06:24:07;;;;;;;4.55;4.25;;;;;;;;;;5112878;28;20083;-83
2023/06/17 06:26:34;;;;;;;4.60;4.13;;;;;;;;;;5111843;28;20135;-82
2023/06/17 06:29:02;;;;;;;4.80;4.25;;;;;;;;;;5111845;28;20047;-83
2023/06/17 06:31:29;;;;;;;4.68;4.20;;;;;;;;;;5112531;28;20124;-82
2023/06/17 06:33:56;;;;;;;4.70;4.30;;;;;;;;;;5111076;28;20073;-83
2023/06/17 06:36:23;;;;;;;4.82;4.20;;;;;;;;;;5112368;28;20035;-83
2023/06/17 06:38:51;;;;;;;5.18;4.20;;;;;;;;;;5111787;28;20130;-82
2023/06/17 06:41:18;;;;;;;5.03;4.32;;;;;;;;;;5115140;28;20069;-82
2023/06/17 06:43:45;;;;;;;5.10;4.70;;;;;;;;;;5112076;28;20105;-83
2023/06/17 06:46:13;;;;;;;5.53;4.43;;;;;;;;;;5113147;28;20052;-82
2023/06/17 06:48:44;;;;;;;4.50;4.10;;;;;;;;;;5111901;28;20047;-83
2023/06/17 06:51:16;;;;;;;;;;;;;;;;;;5112648;28;20055;-83
2023/06/17 06:53:43;;;;;;;4.93;4.53;;;;;;;;;;5111694;28;19919;-83
2023/06/17 06:56:10;;;;;;;3.78;3.47;;;;;;;;;;5110955;28;20071;-84
2023/06/17 06:58:37;;;;;;;4.10;3.75;;;;;;;;;;5112135;28;20488;-84
2023/06/17 07:01:05;;;;;;;4.13;2.70;;;;;;;;;;5111815;28;20048;-84
2023/06/17 07:03:32;;;;;;;4.15;3.17;;;;;;;;;;5111818;28;20055;-83
2023/06/17 07:05:59;;;;;;;4.28;2.90;;;;;;;;;;5112766;28;20054;-82
2023/06/17 07:08:27;;;;;;;4.78;2.67;;;;;;;;;;5111861;28;20070;-84
2023/06/17 07:10:54;;;;;;;2.38;2.17;;;;;;;;;;5112286;28;20069;-84
2023/06/17 07:13:21;;;;;;;4.85;2.75;;;;;;;;;;5112464;28;20075;-82
2023/06/17 07:15:48;;;;;;;2.95;2.72;;;;;;;;;;5112152;28;20048;-83
2023/06/17 07:18:16;;;;;;;3.88;2.60;;;;;;;;;;5111803;28;20499;-84
2023/06/17 07:20:43;;;;;;;2.83;2.53;;;;;;;;;;5111418;28;20082;-83
2023/06/17 07:23:10;;;;;;;4.80;2.70;;;;;;;;;;5115615;28;20121;-86
2023/06/17 07:25:38;;;;;;;4.30;2.67;;;;;;;;;;5115711;28;20104;-83
2023/06/17 07:28:07;;;;;;;3.35;3.05;;;;;;;;;;5115843;28;20044;-83
2023/06/17 07:30:34;;;;;;;8.93;2.63;;;;;;;;;;5115482;28;20051;-83
2023/06/17 07:33:02;;;;;;;3.17;2.67;;;;;;;;;;5114164;28;20081;-83
2023/06/17 07:35:30;;;;;;;2.80;2.55;;;;;;;;;;5115674;28;20278;-82
2023/06/17 07:37:57;;;;;;;3.17;2.88;;;;;;;;;;5115669;28;20233;-84
2023/06/17 07:40:24;;;;;;;3.97;3.03;;;;;;;;;;5115420;28;20097;-85
2023/06/17 07:42:52;;;;;;;3.03;2.80;;;;;;;;;;5114544;28;20043;-82
2023/06/17 07:45:19;;;;;;;5.85;3.17;;;;;;;;;;5114880;28;20043;-86
2023/06/17 07:47:46;;;;;;;3.58;3.17;;;;;;;;;;5115170;28;20134;-83
2023/06/17 07:50:14;;;;;;;3.80;3.40;;;;;;;;;;5114629;28;20083;-83
2023/06/17 07:52:41;;;;;;;4.13;3.15;;;;;;;;;;5115322;28;20051;-84
2023/06/17 07:55:08;;;;;;;3.65;3.35;;;;;;;;;;5116747;28;20075;-88
2023/06/17 07:57:36;;;;;;;5.15;2.78;;;;;;;;;;5120789;28;20487;-84
2023/06/17 08:00:09;;;;;;;3.30;3.00;;;;;;;;;;5115166;28;20058;-83
2023/06/17 08:02:36;;;;;;;4.57;2.63;;;;;;;;;;5115170;28;20388;-85
2023/06/17 08:05:03;;;;;;;2.63;2.42;;;;;;;;;;5115689;28;20046;-83
2023/06/17 08:07:31;;;;;;;2.88;2.40;;;;;;;;;;5114803;28;20106;-84
2023/06/17 08:09:58;;;;;;;3.08;2.60;;;;;;;;;;5114973;28;20043;-84
2023/06/17 08:12:25;;;;;;;2.95;2.42;;;;;;;;;;5114531;28;20381;-84
2023/06/17 08:14:53;;;;;;;5.13;2.70;;;;;;;;;;5114595;28;20056;-83
2023/06/17 08:17:20;;;;;;;2.95;2.45;;;;;;;;;;5115992;28;20112;-83
2023/06/17 08:19:48;;;;;;;2.45;1.90;;;;;;;;;;5116067;28;20043;-84
2023/06/17 08:22:15;;;;;;;3.72;2.15;;;;;;;;;;5114069;28;20054;-83
2023/06/17 08:24:42;;;;;;;3.20;2.60;;;;;;;;;;5114388;28;20055;-84
2023/06/17 08:27:10;;;;;;;3.08;2.67;;;;;;;;;;5114293;28;20047;-85
2023/06/17 08:29:37;;;;;;;5.80;3.03;;;;;;;;;;5114118;28;20083;-88
2023/06/17 08:32:05;;;;;;;3.15;2.92;;;;;;;;;;5114579;28;20229;-85
2023/06/17 08:34:34;;;;;;;2.60;2.40;;;;;;;;;;5114175;28;20545;-82
2023/06/17 08:37:04;;;;;;;4.50;2.35;;;;;;;;;;5113836;28;20135;-83
2023/06/17 08:39:32;;;;;;;3.42;2.50;;;;;;;;;;5114740;27;20054;-83
2023/06/17 08:41:59;;;;;;;2.83;2.60;;;;;;;;;;5115149;28;20051;-85
2023/06/17 08:44:29;;;;;;;2.88;2.58;;;;;;;;;;5112778;28;20052;-85
2023/06/17 08:46:57;;;;;;;2.55;2.38;;;;;;;;;;5114188;28;20040;-86
2023/06/17 08:49:25;;;;;;;2.97;2.33;;;;;;;;;;5114152;28;20092;-83
2023/06/17 08:51:52;;;;;;;2.50;2.20;;;;;;;;;;5114789;28;20100;-83
2023/06/17 08:54:20;;;;;;;3.17;2.20;;;;;;;;;;5113558;28;20043;-82
2023/06/17 08:56:48;;;;;;;3.15;2.67;;;;;;;;;;5113816;28;20096;-85
2023/06/17 08:59:15;;;;;;;4.07;2.50;;;;;;;;;;5114186;28;20389;-85
2023/06/17 09:01:44;;;;;;;2.55;2.45;;;;;;;;;;5113248;28;20039;-83
2023/06/17 09:04:11;;;;;;;3.97;2.30;;;;;;;;;;5113679;28;20086;-82
2023/06/17 09:06:39;;;;;;;2.50;2.30;;;;;;;;;;5113393;28;20656;-83
2023/06/17 09:09:07;;;;;;;3.25;1.92;;;;;;;;;;5113987;28;20047;-87
2023/06/17 09:11:34;;;;;;;3.67;1.98;;;;;;;;;;5113923;28;20051;-85
2023/06/17 09:14:02;;;;;;;2.63;2.42;;;;;;;;;;5117171;28;20051;-86
2023/06/17 09:16:34;;;;;;;2.13;1.92;;;;;;;;;;5114912;28;20055;-83
2023/06/17 09:19:06;;;;;;;2.30;2.10;;;;;;;;;;5114447;28;20434;-84
2023/06/17 09:21:33;;;;;;;2.53;1.98;;;;;;;;;;5113342;28;20446;-84
2023/06/17 09:24:02;;;;;;;2.40;2.25;;;;;;;;;;5112740;28;20051;-86
2023/06/17 09:26:30;;;;;;;8.48;2.13;;;;;;;;;;5112842;28;20048;-83
2023/06/17 09:29:02;;;;;;;6.28;2.58;;;;;;;;;;5114311;28;20052;-84
2023/06/17 09:31:30;;;;;;;2.08;1.98;;;;;;;;;;5112715;28;20056;-83
2023/06/17 09:33:58;;;;;;;3.38;2.20;;;;;;;;;;5113124;28;20040;-84
2023/06/17 09:36:26;;;;;;;2.40;2.20;;;;;;;;;;5114195;28;20556;-86
2023/06/17 09:38:53;;;;;;;3.58;2.35;;;;;;;;;;5113228;28;20101;-86
2023/06/17 09:41:20;;;;;;;5.63;2.40;;;;;;;;;;5112774;28;20495;-90
2023/06/17 09:43:54;;;;;;;7.80;2.20;;;;;;;;;;5112779;28;20129;-83
2023/06/17 09:46:29;;;;;;;3.70;2.35;;;;;;;;;;5112775;28;20048;-86
2023/06/17 09:49:00;;;;;;;3.53;2.40;;;;;;;;;;5112485;28;20580;-85
2023/06/17 09:51:36;;;;;;;2.20;2.10;;;;;;;;;;5113085;28;20055;-84
2023/06/17 09:54:04;;;;;;;4.57;2.40;;;;;;;;;;5112162;28;20047;-85
2023/06/17 09:56:33;;;;;;;2.78;2.15;;;;;;;;;;5112261;28;20122;-84
2023/06/17 09:59:00;;;;;;;2.05;1.90;;;;;;;;;;5112806;28;20511;-85
2023/06/17 10:01:30;;;;;;;2.22;2.13;;;;;;;;;;5113180;28;20442;-87
2023/06/17 10:03:58;;;;;;;4.35;1.90;;;;;;;;;;5112327;28;20075;-86
2023/06/17 10:06:29;;;;;;;3.10;2.08;;;;;;;;;;5112572;28;20054;-85
2023/06/17 10:08:57;;;;;;;3.13;2.33;;;;;;;;;;5112870;28;20066;-83
2023/06/17 10:11:25;;;;;;;4.20;2.10;;;;;;;;;;5113844;28;20431;-82
2023/06/17 10:13:54;;;;;;;2.10;2.00;;;;;;;;;;5115113;28;20043;-84
2023/06/17 10:16:22;;;;;;;2.45;2.25;;;;;;;;;;5113139;28;20044;-83
2023/06/17 10:18:51;;;;;;;1.85;1.75;;;;;;;;;;5114247;28;20433;-83
2023/06/17 10:21:19;;;;;;;2.20;1.98;;;;;;;;;;5113988;28;20055;-83
2023/06/17 10:23:47;;;;;;;2.72;2.47;;;;;;;;;;5113027;28;20100;-82
2023/06/17 10:26:15;;;;;;;4.28;2.30;;;;;;;;;;5114531;28;20048;-82
2023/06/17 10:28:57;;;;;;;3.33;2.42;;;;;;;;;;5113466;28;20044;-83
2023/06/17 10:31:25;;;;;;;4.30;2.50;;;;;;;;;;5122828;28;20054;-82
2023/06/17 10:33:54;;;;;;;2.65;2.38;;;;;;;;;;5113233;28;20552;-85
2023/06/17 10:36:22;;;;;;;2.60;2.40;;;;;;;;;;5112485;28;20044;-88
2023/06/17 10:38:54;;;;;;;2.45;2.35;;;;;;;;;;5112286;28;20487;-84
2023/06/17 10:41:21;;;;;;;2.90;2.70;;;;;;;;;;5112011;28;20492;-83
2023/06/17 10:43:49;;;;;;;2.83;2.50;;;;;;;;;;5112213;28;20048;-84
2023/06/17 10:46:25;;;;;;;2.72;2.53;;;;;;;;;;5111087;28;20052;-85
2023/06/17 10:48:58;;;;;;;3.08;2.63;;;;;;;;;;5112072;28;20051;-85
2023/06/17 10:51:25;;;;;;;3.92;2.92;;;;;;;;;;5112664;28;20101;-85
2023/06/17 10:54:07;;;;;;;2.80;2.70;;;;;;;;;;5113214;28;20058;-83
2023/06/17 10:56:34;;;;;;;3.40;2.75;;;;;;;;;;5111222;28;20487;-86
2023/06/17 10:59:04;;;;;;;2.80;2.60;;;;;;;;;;5116758;28;20101;-84
2023/06/17 11:01:31;;;;;;;5.43;2.75;;;;;;;;;;5115660;28;20077;-83
2023/06/17 11:03:59;;;;;;;3.75;2.30;;;;;;;;;;5117042;28;20047;-86
2023/06/17 11:06:32;;;;;;;2.72;2.53;;;;;;;;;;5115695;28;20545;-84
2023/06/17 11:09:00;;;;;;;2.45;2.35;;;;;;;;;;5116425;28;20491;-85
2023/06/17 11:11:30;;;;;;;6.43;3.10;;;;;;;;;;5115739;28;20105;-84
2023/06/17 11:13:58;;;;;;;3.15;2.92;;;;;;;;;;5115409;28;20484;-83
2023/06/17 11:16:25;;;;;;;2.67;2.53;;;;;;;;;;5115746;28;20052;-84
2023/06/17 11:18:52;;;;;;;2.88;2.67;;;;;;;;;;5115147;28;20109;-84
2023/06/17 11:21:20;;;;;;;2.97;2.78;;;;;;;;;;5116995;28;20392;-86
2023/06/17 11:23:47;;;;;;;3.67;2.97;;;;;;;;;;5115367;28;20075;-83
2023/06/17 11:26:17;;;;;;;2.80;2.63;;;;;;;;;;5116184;28;20051;-86
2023/06/17 11:28:45;;;;;;;3.90;3.30;;;;;;;;;;5116129;28;20464;-86
2023/06/17 11:31:12;;;;;;;3.53;3.17;;;;;;;;;;5115470;28;20437;-85
2023/06/17 11:33:40;;;;;;;3.20;3.00;;;;;;;;;;5115433;28;20051;-83
2023/06/17 11:36:12;;;;;;;4.47;2.88;;;;;;;;;;5116528;28;20045;-84
2023/06/17 11:38:40;;;;;;;5.13;3.47;;;;;;;;;;5116309;28;20518;-84
2023/06/17 11:41:07;;;;;;;2.92;2.72;;;;;;;;;;5116591;28;20047;-85
2023/06/17 11:43:35;;;;;;;3.28;2.88;;;;;;;;;;5115184;28;20109;-82
2023/06/17 11:46:02;;;;;;;2.95;2.75;;;;;;;;;;5118896;28;20062;-85
2023/06/17 11:48:33;;;;;;;5.88;3.00;;;;;;;;;;5121555;28;20047;-84
2023/06/17 11:51:00;;;;;;;4.68;3.08;;;;;;;;;;5115652;28;20050;-86
2023/06/17 11:53:29;;;;;;;3.10;2.90;;;;;;;;;;5116134;28;20100;-83
2023/06/17 11:56:01;;;;;;;3.50;3.20;;;;;;;;;;5116312;28;20055;-84
2023/06/17 11:58:28;;;;;;;3.22;2.95;;;;;;;;;;5114833;28;20096;-85
2023/06/17 12:01:00;;;;;;;3.28;3.08;;;;;;;;;;5114445;28;20498;-83
2023/06/17 12:03:30;;;;;;;3.35;3.05;;;;;;;;;;5114490;28;20052;-85
2023/06/17 12:05:58;;;;;;;3.47;3.17;;;;;;;;;;5115100;28;20044;-84
2023/06/17 12:08:35;;;;;;;4.78;3.08;;;;;;;;;;5115639;28;20047;-84
2023/06/17 12:11:09;;;;;;;3.40;3.10;;;;;;;;;;5114973;28;20048;-85
2023/06/17 12:13:42;;;;;;;3.28;2.88;;;;;;;;;;5114292;28;20105;-84
2023/06/17 12:16:25;;;;;;;3.63;3.33;;;;;;;;;;5104202;28;20192;-84
2023/06/17 12:18:52;;;;;;;6.43;3.38;;;;;;;;;;5104833;28;20040;-85
2023/06/17 12:21:22;;;;;;;4.45;3.40;;;;;;;;;;5102147;28;20107;-88
2023/06/17 12:23:51;;;;;;;3.15;2.92;;;;;;;;;;5099508;28;20040;-84
2023/06/17 12:26:18;;;;;;;4.10;3.38;;;;;;;;;;5094020;28;20044;-85
2023/06/17 12:28:46;;;;;;;7.53;3.38;;;;;;;;;;5094271;28;20056;-86
2023/06/17 12:31:13;;;;;;;3.65;3.33;;;;;;;;;;5093970;28;20052;-83
2023/06/17 12:33:41;;;;;;;3.40;3.10;;;;;;;;;;5093707;28;20101;-83
2023/06/17 12:36:08;;;;;;;3.10;2.90;;;;;;;;;;5093526;28;20048;-83
2023/06/17 12:38:37;;;;;;;3.60;3.38;;;;;;;;;;5094297;28;20052;-83
2023/06/17 12:41:04;;;;;;;3.80;3.50;;;;;;;;;;5093853;28;20060;-85
2023/06/17 12:43:32;;;;;;;3.58;3.28;;;;;;;;;;5093735;28;20048;-83
2023/06/17 12:46:00;;;;;;;3.67;3.38;;;;;;;;;;5094614;28;20085;-84
2023/06/17 12:48:27;;;;;;;3.60;3.00;;;;;;;;;;5094077;28;20052;-85
2023/06/17 12:50:55;;;;;;;3.55;3.25;;;;;;;;;;5094251;28;20102;-83
2023/06/17 12:53:23;;;;;;;4.32;3.80;;;;;;;;;;5092827;28;20055;-86
2023/06/17 12:55:51;;;;;;;3.60;3.30;;;;;;;;;;5095514;28;20446;-83
2023/06/17 12:58:18;;;;;;;8.57;3.47;;;;;;;;;;5093263;28;20052;-84
2023/06/17 13:00:45;;;;;;;4.25;3.10;;;;;;;;;;5094352;28;20489;-83
2023/06/17 13:03:12;;;;;;;3.67;3.38;;;;;;;;;;5100774;28;20044;-84
2023/06/17 13:05:42;;;;;;;11.32;3.53;;;;;;;;;;5100832;28;20082;-84
2023/06/17 13:08:10;;;;;;;4.30;3.22;;;;;;;;;;5093171;28;20138;-84
2023/06/17 13:10:37;;;;;;;4.32;3.25;;;;;;;;;;5093038;28;20077;-84
2023/06/17 13:13:06;;;;;;;4.20;3.45;;;;;;;;;;5093462;28;20089;-85
2023/06/17 13:15:34;;;;;;;4.32;3.92;;;;;;;;;;5093203;28;20494;-84
2023/06/17 13:18:01;;;;;;;4.40;4.00;;;;;;;;;;5093076;28;20587;-84
2023/06/17 13:20:28;;;;;;;3.50;3.17;;;;;;;;;;5091990;28;20506;-82
2023/06/17 13:22:56;;;;;;;4.00;3.70;;;;;;;;;;5092933;28;20492;-85
2023/06/17 13:25:24;;;;;;;3.95;3.65;;;;;;;;;;5093340;28;20453;-87
2023/06/17 13:27:52;;;;;;;4.57;3.50;;;;;;;;;;5093365;28;20196;-84
2023/06/17 13:30:19;;;;;;;3.97;3.60;;;;;;;;;;5092247;28;20052;-83
2023/06/17 13:32:47;;;;;;;4.25;3.85;;;;;;;;;;5092335;28;20147;-83
2023/06/17 13:35:14;;;;;;;4.35;3.92;;;;;;;;;;5092887;28;20044;-84
2023/06/17 13:37:41;;;;;;;4.25;3.80;;;;;;;;;;5092956;28;20040;-84
2023/06/17 13:40:09;;;;;;;6.15;4.43;;;;;;;;;;5093790;28;20508;-83
2023/06/17 13:42:36;;;;;;;4.85;4.40;;;;;;;;;;5093685;28;20136;-83
2023/06/17 13:45:04;;;;;;;4.28;3.90;;;;;;;;;;5092289;28;20059;-83
2023/06/17 13:47:32;;;;;;;5.43;3.85;;;;;;;;;;5092839;28;20196;-84
2023/06/17 13:50:00;;;;;;;4.97;3.88;;;;;;;;;;5093736;28;20056;-86
2023/06/17 13:52:27;;;;;;;90.22;58.13;;;;;;;;;;5092629;28;20051;-83
2023/06/17 13:54:54;;;;;;;4.20;3.90;;;;;;;;;;5094136;28;20048;-85
2023/06/17 13:57:22;;;;;;;4.72;4.10;;;;;;;;;;5092961;28;20066;-86
2023/06/17 13:59:49;;;;;;;5.72;4.03;;;;;;;;;;5093213;28;20044;-88
2023/06/17 14:02:17;;;;;;;4.07;3.78;;;;;;;;;;5093717;28;20128;-82
2023/06/17 14:04:44;;;;;;;5.10;4.30;;;;;;;;;;5094032;28;20052;-86
2023/06/17 14:07:11;;;;;;;5.75;4.30;;;;;;;;;;5093716;28;20055;-86
2023/06/17 14:09:39;;;;;;;5.13;3.90;;;;;;;;;;5093089;28;20055;-82
2023/06/17 14:12:07;;;;;;;4.82;4.10;;;;;;;;;;5093583;28;20055;-88
2023/06/17 14:14:34;;;;;;;4.50;4.10;;;;;;;;;;5094331;28;20459;-87
2023/06/17 14:17:02;;;;;;;4.53;4.13;;;;;;;;;;5093504;28;20055;-86
2023/06/17 14:19:31;;;;;;;4.38;3.97;;;;;;;;;;5093566;28;20054;-83
2023/06/17 14:22:05;;;;;;;6.72;3.83;;;;;;;;;;5103257;28;20108;-85
2023/06/17 14:24:36;;;;;;;4.95;4.45;;;;;;;;;;5092845;28;20060;-84
2023/06/17 14:27:33;;;;;;;4.40;3.72;;;;;;;;;;5093228;28;20399;-83
2023/06/17 14:30:01;;;;;;;4.25;3.90;;;;;;;;;;5084935;28;20056;-87
2023/06/17 14:32:28;;;;;;;72.43;47.10;;;;;;;;;;5097032;28;20052;-84
2023/06/17 14:34:55;;;;;;;8.23;4.65;;;;;;;;;;5096469;28;20048;-86
2023/06/17 14:37:22;;;;;;;4.25;3.95;;;;;;;;;;5095803;28;20056;-83
2023/06/17 14:39:50;;;;;;;4.32;3.72;;;;;;;;;;5095995;28;20070;-83
2023/06/17 14:42:17;;;;;;;7.47;4.32;;;;;;;;;;5096599;28;20059;-87
2023/06/17 14:44:44;;;;;;;4.85;3.72;;;;;;;;;;5093862;28;20048;-86